LPHR/HOR METAR and TAF weather

Enter ICAO airport designator
Station Type Date Time Source
LPHR METAR 2020/04/05 16:00 UTC NOAA

LPHR 051600Z 05006KT 9000 -SHRA BKN012 BKN025 16/13 Q1006


Station Type Date Time Source
LPHR Decoded METAR 2020/04/05 16:00 UTC NOAA

Horta / Castelo Branco Acores , Portugal (LPHR) 38-31N 028-43W 41M
Apr 05, 2020 - 12:00 PM EDT / 2020.04.05 1600 UTC
Wind: from the NE (050 degrees) at 7 MPH (6 KT):0
Visibility: 5 mile(s):0
Sky conditions: mostly cloudy
Weather: light rain showers
Temperature: 60 F (16 C)
Dew Point: 55 F (13 C)
Relative Humidity: 82%
Pressure (altimeter): 29.71 in. Hg (1006 hPa)
ob: LPHR 051600Z 05006KT 9000 -SHRA BKN012 BKN025 16/13 Q1006
cycle: 16

Station Type Date Time Source
LPHR TAF 2018/09/06 09:00 UTC NOAA

TAF LPHR 060800Z 0609/0618 12010KT 9999 SCT018 SCT040 PROB30
TEMPO 0609/0618 5000 SHRA BKN015 FEW018CB
BECMG 0610/0612 18010KT

Example: see airport list